Terminal Aerodrome Forecast
Issued by NWS

Home | Current Version | Previous Version | Graphics & Text | Print | Product List | Glossary On
Versions: 1 2 3 4 5 6 7 8 9 10 11 12 13 14 15 16 17 18
000
FTUS43 KDLH 221721
TAFBRD
TAF
KBRD 221721Z 2218/2318 24005KT P6SM SCT200
     FM230800 27006KT P6SM FEW200
     FM231300 29009KT P6SM BKN040
     FM231400 30010KT P6SM BKN025=

USA.gov is the U.S. government's official web portal to all federal, state and local government web resources and services.